createdAt,value
2018-05-18T00:01:07.542Z,101602.84
2018-05-18T00:03:35.888Z,101603.52
2018-05-18T00:06:04.989Z,101598.89
2018-05-18T00:08:33.725Z,101601.44
2018-05-18T00:11:02.046Z,101603.34
2018-05-18T00:13:30.357Z,101600.43
2018-05-18T00:15:58.701Z,101604.84
2018-05-18T00:18:27.037Z,101602.41
2018-05-18T00:20:55.343Z,101598.31
2018-05-18T00:23:24.176Z,101601.39
2018-05-18T00:25:52.474Z,101598.22
2018-05-18T00:28:21.590Z,101594.31
2018-05-18T00:30:50.097Z,101594.04
2018-05-18T00:33:18.438Z,101592.53
2018-05-18T00:35:46.785Z,101589.37
2018-05-18T00:38:15.164Z,101590.31
2018-05-18T00:40:43.512Z,101588.95
2018-05-18T00:43:11.879Z,101594.24
2018-05-18T00:45:40.532Z,101595.89
2018-05-18T00:48:08.917Z,101601.36
2018-05-18T00:50:38.008Z,101604.27
2018-05-18T00:53:07.144Z,101602.52
2018-05-18T00:55:41.398Z,101603.99
2018-05-18T00:58:09.766Z,101599.98
2018-05-18T01:00:38.127Z,101598.72
2018-05-18T01:03:07.217Z,101603.16
2018-05-18T01:05:35.955Z,101600.05
2018-05-18T01:08:05.055Z,101604.34
2018-05-18T01:10:34.165Z,101606.34
2018-05-18T01:13:02.531Z,101610.44
2018-05-18T01:15:31.644Z,101602.95
2018-05-18T01:17:59.970Z,101604.89
2018-05-18T01:20:28.324Z,101612.19
2018-05-18T01:22:56.665Z,101611.33
2018-05-18T01:25:25.771Z,101611.23
2018-05-18T01:27:54.411Z,101604.98
2018-05-18T01:30:22.734Z,101607.48
2018-05-18T01:32:51.822Z,101602.40
2018-05-18T01:35:20.950Z,101609.41
2018-05-18T01:37:49.295Z,101604.52
2018-05-18T01:40:17.635Z,101603.95
2018-05-18T01:42:46.020Z,101608.70
2018-05-18T01:45:14.357Z,101604.78
2018-05-18T01:47:42.698Z,101600.77
2018-05-18T01:50:11.258Z,101599.33
2018-05-18T01:52:39.592Z,101597.53
2018-05-18T01:55:07.928Z,101597.85
2018-05-18T01:57:36.284Z,101595.21
2018-05-18T02:00:04.618Z,101595.65
2018-05-18T02:02:32.965Z,101602.95
2018-05-18T02:05:01.320Z,101602.79
2018-05-18T02:07:29.712Z,101603.26
2018-05-18T02:09:58.055Z,101600.13
2018-05-18T02:12:26.872Z,101599.33
2018-05-18T02:14:55.211Z,101597.36
2018-05-18T02:17:23.586Z,101596.45
2018-05-18T02:19:51.935Z,101594.54
2018-05-18T02:22:20.291Z,101596.81
2018-05-18T02:24:48.621Z,101588.50
2018-05-18T02:27:17.740Z,101592.89
2018-05-18T02:29:46.109Z,101597.98
2018-05-18T02:32:14.478Z,101597.44
2018-05-18T02:34:42.981Z,101597.97
2018-05-18T02:37:11.360Z,101594.50
2018-05-18T02:39:39.673Z,101598.02
2018-05-18T02:42:08.045Z,101599.25
2018-05-18T02:44:36.363Z,101601.86
2018-05-18T02:47:05.471Z,101604.72
2018-05-18T02:49:33.828Z,101598.88
2018-05-18T02:52:02.237Z,101607.47
2018-05-18T02:54:30.631Z,101610.83
2018-05-18T02:56:59.203Z,101610.63
2018-05-18T02:59:27.520Z,101611.48
2018-05-18T03:01:55.858Z,101608.84
2018-05-18T03:04:24.235Z,101605.67
2018-05-18T03:06:52.562Z,101614.13
2018-05-18T03:09:20.908Z,101610.81
2018-05-18T03:11:49.299Z,101613.39
2018-05-18T03:14:17.985Z,101616.48
2018-05-18T03:16:46.296Z,101616.66
2018-05-18T03:19:14.988Z,101614.39
2018-05-18T03:21:43.351Z,101611.22
2018-05-18T03:24:11.678Z,101610.04
2018-05-18T03:26:40.826Z,101616.20
2018-05-18T03:29:09.180Z,101610.75
2018-05-18T03:31:37.520Z,101620.80
2018-05-18T03:34:06.664Z,101619.13
2018-05-18T03:36:35.020Z,101626.69
2018-05-18T03:39:03.367Z,101627.55
2018-05-18T03:41:32.768Z,101621.27
2018-05-18T03:44:01.094Z,101626.17
2018-05-18T03:46:29.431Z,101624.80
2018-05-18T03:48:57.808Z,101628.10
2018-05-18T03:51:26.224Z,101637.87
2018-05-18T03:53:54.575Z,101634.95
2018-05-18T03:56:23.744Z,101632.94
2018-05-18T03:58:52.134Z,101635.73
2018-05-18T04:01:38.337Z,101638.58
2018-05-18T04:04:24.427Z,101636.27
2018-05-18T04:07:10.428Z,101641.46
2018-05-18T04:09:38.816Z,101640.27
2018-05-18T04:12:07.264Z,101642.99
2018-05-18T04:14:35.865Z,101645.33
2018-05-18T04:17:04.201Z,101638.25
2018-05-18T04:19:32.526Z,101639.72
2018-05-18T04:22:01.422Z,101639.03
2018-05-18T04:24:29.793Z,101643.75
2018-05-18T04:26:58.162Z,101642.72
2018-05-18T04:29:26.553Z,101645.36
2018-05-18T04:31:55.038Z,101644.92
2018-05-18T04:34:23.413Z,101645.46
2018-05-18T04:36:51.869Z,101653.72
2018-05-18T04:39:20.215Z,101646.48
2018-05-18T04:41:48.634Z,101649.04
2018-05-18T04:44:17.203Z,101656.65
2018-05-18T04:46:45.597Z,101656.70
2018-05-18T04:49:14.046Z,101652.33
2018-05-18T04:51:42.427Z,101647.44
2018-05-18T04:54:10.809Z,101651.56
2018-05-18T04:56:39.210Z,101658.73
2018-05-18T04:59:07.603Z,101651.91
2018-05-18T05:01:36.313Z,101654.53
2018-05-18T05:04:04.786Z,101663.78
2018-05-18T05:06:33.710Z,101665.91
2018-05-18T05:09:02.888Z,101659.59
2018-05-18T05:11:31.288Z,101654.05
2018-05-18T05:14:00.465Z,101662.11
2018-05-18T05:16:28.824Z,101664.48
2018-05-18T05:18:57.194Z,101665.30
2018-05-18T05:21:25.656Z,101666.59
2018-05-18T05:23:54.169Z,101673.84
2018-05-18T05:26:24.074Z,101672.39
2018-05-18T05:28:52.739Z,101674.01
2018-05-18T05:31:21.081Z,101673.47
2018-05-18T05:33:49.405Z,101670.02
2018-05-18T05:36:17.744Z,101674.35
2018-05-18T05:38:46.835Z,101680.50
2018-05-18T05:41:15.930Z,101677.42
2018-05-18T05:43:45.075Z,101672.12
2018-05-18T05:46:13.377Z,101681.82
2018-05-18T05:48:41.717Z,101684.51
2018-05-18T05:51:10.189Z,101685.45
2018-05-18T05:53:38.536Z,101682.97
2018-05-18T05:56:06.858Z,101689.91
2018-05-18T05:58:35.285Z,101692.69
2018-05-18T06:01:04.368Z,101699.17
2018-05-18T06:03:33.460Z,101701.55
2018-05-18T06:06:01.805Z,101699.77
2018-05-18T06:08:30.139Z,101699.78
2018-05-18T06:10:58.486Z,101702.98
2018-05-18T06:13:26.954Z,101702.47
2018-05-18T06:15:55.291Z,101711.70
2018-05-18T06:18:24.387Z,101709.34
2018-05-18T06:20:53.516Z,101712.53
2018-05-18T06:23:21.848Z,101715.28
2018-05-18T06:25:50.179Z,101722.17
2018-05-18T06:28:18.561Z,101711.89
2018-05-18T06:30:46.892Z,101724.34
2018-05-18T06:33:15.259Z,101726.83
2018-05-18T06:35:43.861Z,101725.75
2018-05-18T06:38:12.176Z,101720.81
2018-05-18T06:40:40.497Z,101725.27
2018-05-18T06:43:08.873Z,101730.14
2018-05-18T06:45:37.213Z,101726.77
2018-05-18T06:48:05.544Z,101732.40
2018-05-18T06:50:33.893Z,101740.06
2018-05-18T06:53:02.207Z,101739.52
2018-05-18T06:55:30.543Z,101742.59
2018-05-18T06:57:58.931Z,101740.11
2018-05-18T07:00:27.264Z,101739.88
2018-05-18T07:02:55.639Z,101749.50
2018-05-18T07:05:24.740Z,101750.70
2018-05-18T07:07:53.826Z,101753.33
2018-05-18T07:10:22.931Z,101750.39
2018-05-18T07:12:51.264Z,101745.73
2018-05-18T07:15:19.593Z,101743.88
2018-05-18T07:17:47.923Z,101751.02
2018-05-18T07:20:16.348Z,101755.69
2018-05-18T07:22:44.678Z,101753.02
2018-05-18T07:25:13.007Z,101756.17
2018-05-18T07:27:41.362Z,101762.11
2018-05-18T07:30:10.486Z,101754.77
2018-05-18T07:32:38.822Z,101760.23
2018-05-18T07:35:07.185Z,101759.36
2018-05-18T07:37:35.479Z,101756.28
2018-05-18T07:40:03.815Z,101757.05
2018-05-18T07:42:32.335Z,101754.22
2018-05-18T07:45:00.666Z,101755.41
2018-05-18T07:47:28.984Z,101753.70
2018-05-18T07:49:57.339Z,101756.44
2018-05-18T07:52:25.675Z,101755.06
2018-05-18T07:54:54.742Z,101758.40
2018-05-18T07:57:23.109Z,101756.77
2018-05-18T07:59:51.478Z,101767.36
2018-05-18T08:02:19.821Z,101766.84
2018-05-18T08:04:49.414Z,101762.66
2018-05-18T08:07:18.481Z,101765.64
2018-05-18T08:09:46.801Z,101766.84
2018-05-18T08:12:15.936Z,101763.44
2018-05-18T08:14:44.267Z,101762.91
2018-05-18T08:17:13.426Z,101764.18
2018-05-18T08:19:41.769Z,101759.64
2018-05-18T08:22:10.123Z,101762.80
2018-05-18T08:24:39.265Z,101769.63
2018-05-18T08:27:23.380Z,101775.72
2018-05-18T08:29:51.728Z,101785.53
2018-05-18T08:32:20.070Z,101775.41
2018-05-18T08:34:48.443Z,101786.06
2018-05-18T08:37:16.770Z,101788.45
2018-05-18T08:39:45.148Z,101791.94
2018-05-18T08:42:14.321Z,101796.97
2018-05-18T08:44:42.628Z,101795.42
2018-05-18T08:47:10.982Z,101793.35
2018-05-18T08:49:39.612Z,101799.52
2018-05-18T08:52:08.689Z,101799.04
2018-05-18T08:54:37.057Z,101793.31
2018-05-18T08:57:05.423Z,101797.75
2018-05-18T08:59:34.536Z,101797.91
2018-05-18T09:02:02.862Z,101795.77
2018-05-18T09:04:31.224Z,101795.56
2018-05-18T09:06:59.539Z,101806.44
2018-05-18T09:09:27.843Z,101805.17
2018-05-18T09:11:56.460Z,101808.19
2018-05-18T09:14:24.794Z,101810.00
2018-05-18T09:16:53.622Z,101811.30
2018-05-18T09:19:22.743Z,101825.81
2018-05-18T09:21:51.063Z,101817.54
2018-05-18T09:24:19.402Z,101821.11
2018-05-18T09:26:47.755Z,101824.98
2018-05-18T09:29:16.099Z,101815.41
2018-05-18T09:31:44.492Z,101825.63
2018-05-18T09:34:13.055Z,101823.66
2018-05-18T09:36:41.454Z,101823.64
2018-05-18T09:39:09.776Z,101825.19
2018-05-18T09:41:38.129Z,101826.06
2018-05-18T09:44:07.222Z,101819.20
2018-05-18T09:46:35.548Z,101818.81
2018-05-18T09:49:03.903Z,101818.22
2018-05-18T09:51:32.217Z,101814.33
2018-05-18T09:54:00.564Z,101818.51
2018-05-18T09:56:29.739Z,101830.44
2018-05-18T09:58:58.048Z,101830.75
2018-05-18T10:01:26.380Z,101826.11
2018-05-18T10:03:54.746Z,101824.67
2018-05-18T10:06:23.137Z,101833.08
2018-05-18T10:08:51.484Z,101828.76
2018-05-18T10:11:19.839Z,101833.65
2018-05-18T10:13:48.200Z,101835.51
2018-05-18T10:16:17.264Z,101836.47
2018-05-18T10:18:45.955Z,101833.52
2018-05-18T10:21:14.328Z,101831.03
2018-05-18T10:23:42.751Z,101833.03
2018-05-18T10:26:11.125Z,101833.47
2018-05-18T10:28:39.448Z,101837.67
2018-05-18T10:31:07.785Z,101844.34
2018-05-18T10:33:36.906Z,101841.60
2018-05-18T10:36:05.226Z,101850.70
2018-05-18T10:38:33.540Z,101846.17
2018-05-18T10:41:02.316Z,101847.78
2018-05-18T10:43:30.583Z,101845.80
2018-05-18T10:45:59.715Z,101848.62
2018-05-18T10:48:28.126Z,101847.81
2018-05-18T10:50:56.455Z,101849.91
2018-05-18T10:53:25.538Z,101857.03
2018-05-18T10:55:53.951Z,101856.29
2018-05-18T10:58:22.252Z,101859.56
2018-05-18T11:00:50.632Z,101861.91
2018-05-18T11:03:20.219Z,101858.43
2018-05-18T11:05:48.563Z,101864.86
2018-05-18T11:08:16.907Z,101865.13
2018-05-18T11:10:45.247Z,101859.47
2018-05-18T11:13:14.342Z,101865.70
2018-05-18T11:15:42.720Z,101859.73
2018-05-18T11:18:11.089Z,101869.45
2018-05-18T11:20:39.419Z,101871.95
2018-05-18T11:23:07.750Z,101871.71
2018-05-18T11:25:36.333Z,101869.70
2018-05-18T11:28:05.455Z,101868.66
2018-05-18T11:30:33.829Z,101873.31
2018-05-18T11:33:02.243Z,101866.03
2018-05-18T11:35:31.269Z,101875.00
2018-05-18T11:38:00.368Z,101867.34
2018-05-18T11:40:28.743Z,101875.98
2018-05-18T11:42:57.129Z,101866.36
2018-05-18T11:45:26.224Z,101872.72
2018-05-18T11:47:54.916Z,101866.98
2018-05-18T11:50:23.251Z,101864.05
2018-05-18T11:52:51.624Z,101868.46
2018-05-18T11:55:19.969Z,101875.20
2018-05-18T11:57:48.337Z,101877.06
2018-05-18T12:00:17.455Z,101875.38
2018-05-18T12:02:45.899Z,101880.36
2018-05-18T12:05:14.186Z,101890.43
2018-05-18T12:07:43.330Z,101881.50
2018-05-18T12:10:11.985Z,101886.02
2018-05-18T12:12:40.331Z,101885.64
2018-05-18T12:15:08.676Z,101892.59
2018-05-18T12:17:37.047Z,101888.12
2018-05-18T12:20:05.425Z,101886.14
2018-05-18T12:22:33.762Z,101889.11
2018-05-18T12:25:02.972Z,101882.88
2018-05-18T12:27:31.337Z,101882.88
2018-05-18T12:30:00.446Z,101889.62
2018-05-18T12:32:29.706Z,101883.72
2018-05-18T12:34:58.066Z,101882.31
2018-05-18T12:37:26.410Z,101889.19
2018-05-18T12:39:54.786Z,101887.91
2018-05-18T12:42:23.132Z,101888.27
2018-05-18T12:44:51.466Z,101885.33
2018-05-18T12:47:19.817Z,101887.24
2018-05-18T12:49:48.925Z,101880.45
2018-05-18T12:52:17.266Z,101882.38
2018-05-18T12:54:45.714Z,101876.55
2018-05-18T12:57:14.034Z,101875.73
2018-05-18T12:59:42.381Z,101876.68
2018-05-18T13:02:10.730Z,101876.80
2018-05-18T13:04:39.121Z,101880.61
2018-05-18T13:07:07.485Z,101879.27
2018-05-18T13:09:35.894Z,101878.11
2018-05-18T13:12:04.237Z,101866.30
2018-05-18T13:14:32.591Z,101873.50
2018-05-18T13:17:01.152Z,101868.39
2018-05-18T13:19:29.476Z,101875.16
2018-05-18T13:21:58.570Z,101873.82
2018-05-18T13:24:27.672Z,101875.06
2018-05-18T13:26:56.005Z,101879.41
2018-05-18T13:29:24.348Z,101875.77
2018-05-18T13:31:52.721Z,101879.41
2018-05-18T13:34:21.083Z,101883.63
2018-05-18T13:36:50.184Z,101884.29
2018-05-18T13:39:18.645Z,101883.38
2018-05-18T13:41:47.760Z,101881.25
2018-05-18T13:44:16.093Z,101876.23
2018-05-18T13:46:44.434Z,101879.30
2018-05-18T13:49:12.768Z,101876.61
2018-05-18T13:51:41.205Z,101879.65
2018-05-18T13:54:10.331Z,101872.78
2018-05-18T13:56:38.648Z,101876.63
2018-05-18T13:59:07.718Z,101878.47
2018-05-18T14:01:36.155Z,101873.87
2018-05-18T14:04:04.504Z,101872.55
2018-05-18T14:06:32.866Z,101871.33
2018-05-18T14:09:01.992Z,101867.24
2018-05-18T14:11:30.333Z,101867.34
2018-05-18T14:13:58.691Z,101869.84
2018-05-18T14:16:27.056Z,101866.88
2018-05-18T14:18:55.380Z,101865.08
2018-05-18T14:21:23.985Z,101873.73
2018-05-18T14:23:52.770Z,101865.79
2018-05-18T14:26:21.224Z,101868.86
2018-05-18T14:28:50.251Z,101870.09
2018-05-18T14:31:18.618Z,101867.06
2018-05-18T14:33:47.030Z,101872.17
2018-05-18T14:36:15.404Z,101871.69
2018-05-18T14:38:43.911Z,101860.70
2018-05-18T14:41:12.265Z,101866.92
2018-05-18T14:43:40.621Z,101861.30
2018-05-18T14:46:10.193Z,101860.30
2018-05-18T14:48:38.559Z,101860.48
2018-05-18T14:51:07.012Z,101856.00
2018-05-18T14:53:35.297Z,101863.52
2018-05-18T14:56:03.616Z,101861.19
2018-05-18T14:58:31.978Z,101857.83
2018-05-18T15:01:00.361Z,101858.09
2018-05-18T15:03:28.686Z,101854.70
2018-05-18T15:05:57.780Z,101852.99
2018-05-18T15:08:27.468Z,101854.73
2018-05-18T15:10:55.807Z,101861.87
2018-05-18T15:13:24.122Z,101857.41
2018-05-18T15:15:53.272Z,101863.67
2018-05-18T15:18:21.587Z,101870.92
2018-05-18T15:20:49.921Z,101864.40
2018-05-18T15:23:18.553Z,101866.66
2018-05-18T15:25:46.895Z,101865.46
2018-05-18T15:28:15.284Z,101866.21
2018-05-18T15:30:43.918Z,101870.84
2018-05-18T15:33:13.036Z,101870.04
2018-05-18T15:35:41.497Z,101867.30
2018-05-18T15:38:10.658Z,101860.49
2018-05-18T15:40:39.015Z,101872.48
2018-05-18T15:43:07.373Z,101867.67
2018-05-18T15:45:35.785Z,101859.73
2018-05-18T15:48:04.188Z,101870.04
2018-05-18T15:50:32.556Z,101867.55
2018-05-18T15:53:01.374Z,101865.00
2018-05-18T15:55:29.748Z,101864.70
2018-05-18T15:57:58.077Z,101865.64
2018-05-18T16:00:26.435Z,101856.13
2018-05-18T16:02:54.802Z,101860.66
2018-05-18T16:05:23.915Z,101859.09
2018-05-18T16:07:52.425Z,101855.83
2018-05-18T16:10:20.742Z,101859.08
2018-05-18T16:12:49.175Z,101855.50
2018-05-18T16:15:18.349Z,101860.28
2018-05-18T16:17:46.717Z,101864.23
2018-05-18T16:20:15.819Z,101866.03
2018-05-18T16:22:44.967Z,101861.92
2018-05-18T16:25:13.604Z,101864.72
2018-05-18T16:27:42.719Z,101871.00
2018-05-18T16:30:11.118Z,101864.84
2018-05-18T16:32:39.447Z,101864.70
2018-05-18T16:35:08.533Z,101863.70
2018-05-18T16:37:37.160Z,101871.77
2018-05-18T16:40:05.548Z,101863.41
2018-05-18T16:42:33.881Z,101870.47
2018-05-18T16:45:02.253Z,101861.30
2018-05-18T16:47:30.590Z,101859.21
2018-05-18T16:49:58.948Z,101862.80
2018-05-18T16:52:27.329Z,101865.03
2018-05-18T16:54:55.657Z,101862.95
2018-05-18T16:57:23.971Z,101865.59
2018-05-18T16:59:52.444Z,101868.47
2018-05-18T17:02:21.575Z,101870.52
2018-05-18T17:04:49.919Z,101878.86
2018-05-18T17:07:19.095Z,101876.31
2018-05-18T17:09:47.433Z,101873.16
2018-05-18T17:12:15.818Z,101875.46
2018-05-18T17:14:44.209Z,101876.73
2018-05-18T17:17:12.515Z,101879.98
2018-05-18T17:19:40.878Z,101885.77
2018-05-18T17:22:09.628Z,101878.27
2018-05-18T17:24:37.955Z,101882.69
2018-05-18T17:27:06.358Z,101880.42
2018-05-18T17:29:35.593Z,101880.41
2018-05-18T17:32:03.962Z,101886.59
2018-05-18T17:34:32.295Z,101892.38
2018-05-18T17:37:00.658Z,101888.52
2018-05-18T17:39:28.982Z,101887.45
2018-05-18T17:41:58.077Z,101890.38
2018-05-18T17:44:27.356Z,101892.63
2018-05-18T17:46:55.712Z,101881.61
2018-05-18T17:49:24.078Z,101884.35
2018-05-18T17:51:54.392Z,101893.58
2018-05-18T17:54:22.789Z,101902.45
2018-05-18T17:56:51.672Z,101894.91
2018-05-18T17:59:20.138Z,101891.76
2018-05-18T18:01:48.670Z,101892.80
2018-05-18T18:04:17.091Z,101894.45
2018-05-18T18:06:45.544Z,101882.59
2018-05-18T18:09:13.879Z,101887.44
2018-05-18T18:11:42.262Z,101886.66
2018-05-18T18:14:10.663Z,101880.54
2018-05-18T18:16:39.750Z,101894.54
2018-05-18T18:19:08.081Z,101893.19
2018-05-18T18:21:37.190Z,101898.68
2018-05-18T18:24:05.561Z,101900.02
2018-05-18T18:26:34.236Z,101902.24
2018-05-18T18:29:02.831Z,101903.31
2018-05-18T18:31:31.203Z,101897.28
2018-05-18T18:33:59.508Z,101900.94
2018-05-18T18:36:27.907Z,101897.25
2018-05-18T18:38:56.221Z,101899.72
2018-05-18T18:41:24.531Z,101904.37
2018-05-18T18:43:52.888Z,101898.50
2018-05-18T18:46:22.107Z,101903.61
2018-05-18T18:48:50.478Z,101900.29
2018-05-18T18:51:19.690Z,101903.61
2018-05-18T18:53:48.031Z,101908.03
2018-05-18T18:56:16.383Z,101905.80
2018-05-18T18:58:44.826Z,101907.16
2018-05-18T19:01:13.842Z,101909.91
2018-05-18T19:03:43.221Z,101915.78
2018-05-18T19:06:11.614Z,101916.91
2018-05-18T19:08:39.982Z,101922.30
2018-05-18T19:11:08.324Z,101919.66
2018-05-18T19:13:36.756Z,101928.36
2018-05-18T19:16:05.084Z,101931.30
2018-05-18T19:18:33.446Z,101933.95
2018-05-18T19:21:01.823Z,101931.08
2018-05-18T19:23:30.184Z,101936.65
2018-05-18T19:25:58.867Z,101931.42
2018-05-18T19:28:27.613Z,101937.61
2018-05-18T19:30:56.716Z,101937.23
2018-05-18T19:33:26.228Z,101938.22
2018-05-18T19:35:54.699Z,101940.84
2018-05-18T19:38:23.796Z,101942.17
2018-05-18T19:40:52.898Z,101948.44
2018-05-18T19:43:22.017Z,101947.63
2018-05-18T19:45:50.342Z,101949.50
2018-05-18T19:48:18.717Z,101949.66
2018-05-18T19:50:47.870Z,101943.53
2018-05-18T19:53:16.214Z,101949.93
2018-05-18T19:55:45.309Z,101949.68
2018-05-18T19:58:13.751Z,101958.04
2018-05-18T20:00:42.095Z,101944.33
2018-05-18T20:03:10.490Z,101950.77
2018-05-18T20:05:38.783Z,101941.77
2018-05-18T20:08:07.176Z,101943.16
2018-05-18T20:10:35.581Z,101945.13
2018-05-18T20:13:03.916Z,101939.30
2018-05-18T20:15:32.307Z,101947.17
2018-05-18T20:18:00.639Z,101951.38
2018-05-18T20:20:29.668Z,101947.80
2018-05-18T20:22:58.032Z,101944.53
2018-05-18T20:25:26.390Z,101945.90
2018-05-18T20:27:55.600Z,101938.36
2018-05-18T20:30:24.381Z,101947.88
2018-05-18T20:32:53.570Z,101947.39
2018-05-18T20:35:21.996Z,101944.77
2018-05-18T20:37:50.326Z,101949.95
2018-05-18T20:40:19.560Z,101949.09
2018-05-18T20:42:48.210Z,101941.66
2018-05-18T20:45:17.413Z,101950.73
2018-05-18T20:47:46.540Z,101950.89
2018-05-18T20:50:14.917Z,101950.55
2018-05-18T20:52:43.325Z,101951.92
2018-05-18T20:55:11.693Z,101954.59
2018-05-18T20:57:40.088Z,101959.05
2018-05-18T21:00:08.470Z,101962.37
2018-05-18T21:02:36.916Z,101952.24
2018-05-18T21:05:05.698Z,101958.46
2018-05-18T21:07:34.050Z,101957.34
2018-05-18T21:10:03.167Z,101955.62
2018-05-18T21:12:31.601Z,101957.72
2018-05-18T21:14:59.966Z,101964.01
2018-05-18T21:17:28.292Z,101962.39
2018-05-18T21:19:57.421Z,101963.41
2018-05-18T21:22:25.762Z,101960.70
2018-05-18T21:24:54.973Z,101955.78
2018-05-18T21:27:23.428Z,101962.88
2018-05-18T21:29:51.758Z,101964.56
2018-05-18T21:32:20.209Z,101964.91
2018-05-18T21:34:48.586Z,101968.39
2018-05-18T21:37:17.687Z,101967.19
2018-05-18T21:39:46.784Z,101965.05
2018-05-18T21:42:15.910Z,101967.66
2018-05-18T21:44:44.306Z,101967.19
2018-05-18T21:47:12.664Z,101970.70
2018-05-18T21:49:41.102Z,101965.24
2018-05-18T21:52:09.490Z,101972.98
2018-05-18T21:54:37.838Z,101966.55
2018-05-18T21:57:06.200Z,101962.10
2018-05-18T21:59:34.522Z,101958.92
2018-05-18T22:02:02.859Z,101967.73
2018-05-18T22:04:31.275Z,101968.91
2018-05-18T22:06:59.646Z,101969.89
2018-05-18T22:09:27.975Z,101966.63
2018-05-18T22:11:56.542Z,101968.52
2018-05-18T22:14:24.917Z,101966.53
2018-05-18T22:16:54.004Z,101960.28
2018-05-18T22:19:23.119Z,101958.75
2018-05-18T22:21:52.203Z,101963.30
2018-05-18T22:24:21.366Z,101961.56
2018-05-18T22:26:49.742Z,101966.70
2018-05-18T22:29:18.104Z,101958.85
2018-05-18T22:31:46.733Z,101960.41
2018-05-18T22:34:15.221Z,101970.34
2018-05-18T22:36:44.334Z,101966.90
2018-05-18T22:39:13.422Z,101963.83
2018-05-18T22:41:42.556Z,101967.25
2018-05-18T22:44:10.875Z,101968.55
2018-05-18T22:46:39.259Z,101965.98
2018-05-18T22:49:07.626Z,101966.94
2018-05-18T22:51:35.986Z,101966.56
2018-05-18T22:54:04.352Z,101959.45
2018-05-18T22:56:32.966Z,101956.47
2018-05-18T22:59:01.364Z,101959.48
2018-05-18T23:01:29.699Z,101958.45
2018-05-18T23:03:58.039Z,101953.31
2018-05-18T23:06:26.356Z,101956.58
2018-05-18T23:08:54.776Z,101956.72
2018-05-18T23:11:23.208Z,101955.59
2018-05-18T23:13:51.538Z,101958.05
2018-05-18T23:16:20.663Z,101959.40
2018-05-18T23:18:50.263Z,101953.97
2018-05-18T23:21:18.670Z,101954.06
2018-05-18T23:23:47.053Z,101953.89
2018-05-18T23:26:15.464Z,101959.11
2018-05-18T23:28:43.815Z,101957.39
2018-05-18T23:31:12.137Z,101962.16
2018-05-18T23:33:41.075Z,101960.28
2018-05-18T23:36:09.412Z,101960.79
2018-05-18T23:38:37.728Z,101961.11
2018-05-18T23:41:06.258Z,101955.48
2018-05-18T23:43:34.623Z,101945.56
2018-05-18T23:46:03.828Z,101955.83
2018-05-18T23:48:32.182Z,101954.36
2018-05-18T23:51:00.516Z,101957.28
2018-05-18T23:53:28.845Z,101961.30
2018-05-18T23:55:57.191Z,101954.97
2018-05-18T23:58:26.316Z,101961.31
